Time;durP1;ratioP1;P1;durP2;ratioP2;P2;SDS_P1;SDS_P2;PMS_P1;PMS_P2;Temp;Humidity;BMP_temperature;BMP_pressure;BME280_temperature;BME280_humidity;BME280_pressure;Samples;Min_cycle;Max_cycle;Signal;HPM_P1;HPM_P2
2021/01/24 00:00:45;;;;;;;6.25;1.47;;;;;;;18.19;46.18;98026.77;;;;-49
2021/01/24 00:03:45;;;;;;;1.45;1.35;;;;;;;18.17;46.24;98029.48;;;;-48
2021/01/24 00:06:45;;;;;;;1.65;1.55;;;;;;;18.15;46.22;98030.81;;;;-48
2021/01/24 00:09:45;;;;;;;1.50;1.40;;;;;;;18.15;46.24;98034.22;;;;-48
2021/01/24 00:12:45;;;;;;;1.62;1.52;;;;;;;18.13;46.21;98030.08;;;;-48
2021/01/24 00:15:45;;;;;;;1.73;1.49;;;;;;;18.12;46.25;98031.67;;;;-49
2021/01/24 00:18:45;;;;;;;1.61;1.50;;;;;;;18.10;46.26;98029.02;;;;-48
2021/01/24 00:21:45;;;;;;;1.61;1.51;;;;;;;18.08;46.25;98031.74;;;;-48
2021/01/24 01:50:45;;;;;;;1.39;1.29;;;;;;;17.71;46.52;98065.02;;;;-56
2021/01/24 01:53:45;;;;;;;1.54;1.44;;;;;;;17.70;46.51;98059.77;;;;-55
2021/01/24 01:56:45;;;;;;;2.11;1.41;;;;;;;17.69;46.43;98060.86;;;;-55
2021/01/24 01:59:45;;;;;;;1.47;1.30;;;;;;;17.67;46.54;98064.03;;;;-55
2021/01/24 02:02:45;;;;;;;1.53;1.40;;;;;;;17.66;46.47;98067.17;;;;-55
2021/01/24 02:05:45;;;;;;;1.43;1.33;;;;;;;17.65;46.55;98078.84;;;;-55
2021/01/24 02:08:45;;;;;;;1.36;1.26;;;;;;;17.64;46.55;98075.16;;;;-55
2021/01/24 02:11:45;;;;;;;1.50;1.40;;;;;;;17.63;46.54;98082.38;;;;-55
2021/01/24 02:14:45;;;;;;;1.47;1.37;;;;;;;17.62;46.51;98096.98;;;;-55
2021/01/24 02:17:45;;;;;;;1.38;1.28;;;;;;;17.61;46.44;98096.44;;;;-51
2021/01/24 02:20:45;;;;;;;1.42;1.30;;;;;;;17.60;46.47;98111.28;;;;-51
2021/01/24 02:23:45;;;;;;;1.35;1.20;;;;;;;17.60;46.56;98124.71;;;;-50
2021/01/24 02:26:45;;;;;;;1.23;1.23;;;;;;;17.57;46.50;98131.81;;;;-50
2021/01/24 02:29:45;;;;;;;1.40;1.30;;;;;;;17.57;46.52;98141.71;;;;-50
2021/01/24 02:32:45;;;;;;;1.30;1.20;;;;;;;17.55;46.46;98147.48;;;;-51
2021/01/24 02:35:45;;;;;;;1.43;1.33;;;;;;;17.54;46.59;98157.72;;;;-50
2021/01/24 02:38:45;;;;;;;1.40;1.30;;;;;;;17.54;46.53;98161.39;;;;-50
2021/01/24 02:41:45;;;;;;;2.20;1.31;;;;;;;17.53;46.53;98169.66;;;;-51
2021/01/24 02:44:45;;;;;;;1.33;1.20;;;;;;;17.52;46.47;98172.03;;;;-51
2021/01/24 02:47:45;;;;;;;1.34;1.24;;;;;;;17.52;46.58;98180.55;;;;-50
2021/01/24 02:50:45;;;;;;;1.39;1.29;;;;;;;17.51;46.56;98185.58;;;;-51
2021/01/24 02:53:45;;;;;;;1.30;1.20;;;;;;;17.49;46.50;98197.26;;;;-50
2021/01/24 02:56:45;;;;;;;1.40;1.30;;;;;;;17.48;46.60;98202.45;;;;-51
2021/01/24 02:59:45;;;;;;;1.10;1.10;;;;;;;17.47;46.59;98207.45;;;;-51
2021/01/24 03:02:45;;;;;;;1.30;1.20;;;;;;;17.45;46.55;98213.72;;;;-50
2021/01/24 04:32:45;;;;;;;1.29;1.19;;;;;;;17.20;46.58;98372.87;;;;-48
2021/01/24 04:35:45;;;;;;;1.33;1.23;;;;;;;17.20;46.54;98380.95;;;;-49
2021/01/24 04:38:45;;;;;;;1.31;1.21;;;;;;;17.19;46.62;98383.89;;;;-48
2021/01/24 04:41:45;;;;;;;1.04;1.04;;;;;;;17.19;46.59;98389.64;;;;-48
2021/01/24 04:44:45;;;;;;;1.27;1.20;;;;;;;17.17;46.56;98390.88;;;;-48
2021/01/24 04:47:45;;;;;;;1.27;1.17;;;;;;;17.17;46.57;98398.48;;;;-48
2021/01/24 04:50:45;;;;;;;1.27;1.17;;;;;;;17.16;46.53;98398.17;;;;-48
2021/01/24 04:53:45;;;;;;;1.12;1.11;;;;;;;17.15;46.57;98406.03;;;;-48
2021/01/24 04:56:45;;;;;;;1.10;1.10;;;;;;;17.15;46.56;98408.16;;;;-48
2021/01/24 04:59:45;;;;;;;1.27;1.19;;;;;;;17.13;46.59;98414.00;;;;-48
2021/01/24 05:02:45;;;;;;;1.11;1.10;;;;;;;17.13;46.60;98417.66;;;;-48
2021/01/24 05:05:45;;;;;;;1.25;1.15;;;;;;;17.12;46.60;98426.33;;;;-48
2021/01/24 05:08:45;;;;;;;1.30;1.20;;;;;;;17.11;46.55;98422.45;;;;-48
2021/01/24 05:11:45;;;;;;;2.13;1.79;;;;;;;17.04;44.92;98429.47;;;;-48
2021/01/24 05:14:45;;;;;;;2.39;1.80;;;;;;;17.00;44.04;98436.16;;;;-48
2021/01/24 05:17:45;;;;;;;2.26;1.99;;;;;;;16.84;43.40;98439.16;;;;-48
2021/01/24 05:20:45;;;;;;;2.96;1.97;;;;;;;16.78;43.04;98440.25;;;;-48
2021/01/24 05:23:45;;;;;;;2.67;2.10;;;;;;;16.66;42.75;98433.09;;;;-48
2021/01/24 05:26:45;;;;;;;3.36;2.13;;;;;;;16.54;42.44;98448.46;;;;-48
2021/01/24 05:29:45;;;;;;;2.19;1.96;;;;;;;16.51;42.46;98446.78;;;;-48
2021/01/24 05:32:45;;;;;;;2.21;2.01;;;;;;;16.42;42.12;98446.52;;;;-48
2021/01/24 05:35:45;;;;;;;2.61;2.21;;;;;;;16.42;41.83;98448.86;;;;-51
2021/01/24 05:38:45;;;;;;;2.14;1.91;;;;;;;16.46;43.11;98454.00;;;;-50
2021/01/24 05:41:45;;;;;;;2.66;1.69;;;;;;;16.52;43.74;98458.52;;;;-54
2021/01/24 05:44:45;;;;;;;2.89;1.86;;;;;;;16.57;44.13;98467.81;;;;-53
2021/01/24 05:47:45;;;;;;;2.23;1.69;;;;;;;16.61;44.32;98469.30;;;;-57
2021/01/24 05:50:45;;;;;;;2.40;1.84;;;;;;;16.63;44.49;98470.33;;;;-55
2021/01/24 05:53:45;;;;;;;3.55;1.78;;;;;;;16.66;44.63;98476.33;;;;-58
2021/01/24 05:56:45;;;;;;;3.41;1.69;;;;;;;16.68;44.78;98475.25;;;;-57
2021/01/24 05:59:45;;;;;;;2.06;1.49;;;;;;;16.70;44.91;98478.63;;;;-52
2021/01/24 06:02:45;;;;;;;2.23;1.48;;;;;;;16.73;44.95;98487.42;;;;-52
2021/01/24 06:05:45;;;;;;;3.98;1.57;;;;;;;16.73;45.00;98492.98;;;;-51
2021/01/24 06:08:45;;;;;;;2.15;1.50;;;;;;;16.73;45.09;98497.70;;;;-52
2021/01/24 06:11:45;;;;;;;1.59;1.49;;;;;;;16.74;45.08;98508.00;;;;-51
2021/01/24 06:14:45;;;;;;;1.89;1.56;;;;;;;16.75;45.07;98511.41;;;;-52
2021/01/24 06:17:45;;;;;;;1.69;1.53;;;;;;;16.76;45.09;98512.34;;;;-52
2021/01/24 06:20:45;;;;;;;4.73;1.49;;;;;;;16.77;45.05;98522.78;;;;-52
2021/01/24 06:23:45;;;;;;;1.50;1.40;;;;;;;16.78;45.07;98515.39;;;;-50
2021/01/24 06:26:45;;;;;;;2.04;1.38;;;;;;;16.79;45.13;98520.98;;;;-50
2021/01/24 06:29:45;;;;;;;1.73;1.40;;;;;;;16.81;45.22;98523.55;;;;-50
2021/01/24 06:32:45;;;;;;;1.52;1.42;;;;;;;16.82;45.17;98530.82;;;;-50
2021/01/24 06:35:45;;;;;;;1.50;1.40;;;;;;;16.85;45.18;98534.90;;;;-50
2021/01/24 06:38:45;;;;;;;1.79;1.37;;;;;;;16.85;45.27;98533.62;;;;-50
2021/01/24 06:41:45;;;;;;;1.46;1.36;;;;;;;16.88;45.33;98543.84;;;;-50
2021/01/24 06:44:45;;;;;;;1.40;1.30;;;;;;;16.91;45.39;98543.96;;;;-50
2021/01/24 06:47:45;;;;;;;2.19;1.33;;;;;;;16.94;45.41;98540.94;;;;-50
2021/01/24 06:50:45;;;;;;;1.61;1.35;;;;;;;16.98;45.39;98546.16;;;;-50
2021/01/24 06:53:45;;;;;;;1.43;1.27;;;;;;;17.02;45.47;98550.79;;;;-50
2021/01/24 06:56:45;;;;;;;1.40;1.30;;;;;;;17.05;45.42;98561.33;;;;-54
2021/01/24 06:59:45;;;;;;;1.34;1.24;;;;;;;17.09;45.43;98559.66;;;;-53
2021/01/24 07:02:45;;;;;;;1.45;1.35;;;;;;;17.12;45.48;98566.17;;;;-53
2021/01/24 07:05:45;;;;;;;1.27;1.19;;;;;;;17.17;45.56;98558.08;;;;-53
2021/01/24 07:08:45;;;;;;;1.30;1.20;;;;;;;17.22;45.56;98564.15;;;;-54
2021/01/24 07:11:45;;;;;;;1.39;1.29;;;;;;;17.24;45.61;98569.53;;;;-55
2021/01/24 07:14:45;;;;;;;1.62;1.30;;;;;;;17.27;45.67;98580.77;;;;-54
2021/01/24 07:17:45;;;;;;;1.29;1.19;;;;;;;17.30;45.70;98576.73;;;;-53
2021/01/24 07:20:45;;;;;;;1.30;1.20;;;;;;;17.32;45.64;98583.59;;;;-53
2021/01/24 07:23:45;;;;;;;1.40;1.30;;;;;;;17.35;45.72;98584.37;;;;-53
2021/01/24 07:26:44;;;;;;;1.32;1.22;;;;;;;17.36;45.51;98584.52;;;;-52
2021/01/24 07:29:45;;;;;;;1.29;1.19;;;;;;;17.38;45.64;98585.45;;;;-52
2021/01/24 07:32:45;;;;;;;1.31;1.21;;;;;;;17.38;45.53;98594.74;;;;-52
2021/01/24 07:35:45;;;;;;;1.20;1.10;;;;;;;17.40;45.62;98601.20;;;;-48
2021/01/24 07:38:45;;;;;;;1.30;1.20;;;;;;;17.41;45.67;98597.79;;;;-52
2021/01/24 07:41:44;;;;;;;1.37;1.27;;;;;;;17.41;45.69;98612.54;;;;-52
2021/01/24 07:44:45;;;;;;;1.23;1.15;;;;;;;17.42;45.69;98609.45;;;;-52
2021/01/24 07:47:45;;;;;;;1.30;1.20;;;;;;;17.42;45.55;98611.70;;;;-52
2021/01/24 07:50:45;;;;;;;1.29;1.19;;;;;;;17.42;45.62;98613.23;;;;-52
2021/01/24 07:53:45;;;;;;;1.30;1.20;;;;;;;17.42;45.65;98620.84;;;;-50
2021/01/24 07:56:45;;;;;;;1.27;1.17;;;;;;;17.42;45.65;98627.32;;;;-50
2021/01/24 07:59:45;;;;;;;1.18;1.10;;;;;;;17.43;45.58;98635.66;;;;-48
2021/01/24 08:02:45;;;;;;;1.27;1.17;;;;;;;17.43;45.55;98634.52;;;;-50
2021/01/24 08:05:45;;;;;;;1.10;1.10;;;;;;;17.43;45.62;98641.23;;;;-50
2021/01/24 08:08:45;;;;;;;1.34;1.24;;;;;;;17.42;45.51;98644.32;;;;-52
2021/01/24 08:11:45;;;;;;;2.30;1.40;;;;;;;17.43;45.65;98649.92;;;;-58
2021/01/24 08:14:45;;;;;;;2.40;1.30;;;;;;;17.43;45.36;98655.50;;;;-60
2021/01/24 08:17:45;;;;;;;2.42;1.28;;;;;;;17.42;45.49;98653.57;;;;-58
2021/01/24 08:20:44;;;;;;;1.29;1.19;;;;;;;17.42;45.57;98649.84;;;;-57
2021/01/24 08:23:45;;;;;;;1.29;1.19;;;;;;;17.42;45.58;98662.39;;;;-57
2021/01/24 08:26:45;;;;;;;1.79;1.20;;;;;;;17.42;45.53;98663.86;;;;-57
2021/01/24 08:29:45;;;;;;;1.29;1.19;;;;;;;17.41;45.56;98666.13;;;;-57
2021/01/24 08:32:45;;;;;;;2.51;1.37;;;;;;;17.40;45.60;98668.80;;;;-58
2021/01/24 08:35:45;;;;;;;1.23;1.09;;;;;;;17.40;45.62;98680.16;;;;-57
2021/01/24 08:38:45;;;;;;;1.10;1.10;;;;;;;17.40;45.55;98678.36;;;;-57
2021/01/24 08:41:45;;;;;;;1.16;1.06;;;;;;;17.40;45.53;98684.77;;;;-56
2021/01/24 08:44:44;;;;;;;1.85;1.11;;;;;;;17.40;45.55;98686.95;;;;-58
2021/01/24 08:47:45;;;;;;;2.21;1.27;;;;;;;17.39;45.51;98682.44;;;;-57
2021/01/24 08:50:45;;;;;;;1.30;1.20;;;;;;;17.39;45.46;98686.25;;;;-58
2021/01/24 08:53:45;;;;;;;1.27;1.15;;;;;;;17.38;45.52;98704.70;;;;-59
2021/01/24 08:56:45;;;;;;;1.11;1.06;;;;;;;17.38;45.50;98706.65;;;;-58
2021/01/24 08:59:45;;;;;;;1.48;1.21;;;;;;;17.38;45.48;98714.89;;;;-59
2021/01/24 09:02:45;;;;;;;1.30;1.20;;;;;;;17.39;45.49;98710.44;;;;-59
2021/01/24 09:05:45;;;;;;;1.49;1.10;;;;;;;17.38;45.46;98716.84;;;;-59
2021/01/24 09:08:45;;;;;;;1.28;1.18;;;;;;;17.39;45.52;98722.03;;;;-59
2021/01/24 09:11:45;;;;;;;1.20;1.11;;;;;;;17.38;45.54;98721.63;;;;-59
2021/01/24 09:14:45;;;;;;;1.15;1.10;;;;;;;17.38;45.53;98722.91;;;;-59
2021/01/24 09:17:45;;;;;;;1.13;1.10;;;;;;;17.38;45.54;98721.37;;;;-58
2021/01/24 09:20:45;;;;;;;1.10;1.00;;;;;;;17.39;45.55;98723.23;;;;-59
2021/01/24 09:23:45;;;;;;;1.67;1.18;;;;;;;17.38;45.53;98730.69;;;;-58
2021/01/24 09:26:45;;;;;;;1.09;1.09;;;;;;;17.39;45.52;98729.07;;;;-58
2021/01/24 09:29:45;;;;;;;1.31;1.21;;;;;;;17.38;45.50;98730.44;;;;-58
2021/01/24 09:32:44;;;;;;;1.30;1.20;;;;;;;17.39;45.47;98731.17;;;;-54
2021/01/24 09:35:45;;;;;;;1.78;1.20;;;;;;;17.42;45.74;98737.22;;;;-53
2021/01/24 09:38:45;;;;;;;4.33;1.25;;;;;;;17.44;46.53;98741.38;;;;-52
2021/01/24 09:41:45;;;;;;;1.37;1.20;;;;;;;17.48;46.66;98745.63;;;;-52
2021/01/24 09:44:45;;;;;;;2.05;1.27;;;;;;;17.53;46.58;98759.17;;;;-62
2021/01/24 09:47:45;;;;;;;1.83;1.23;;;;;;;17.57;46.65;98750.53;;;;-51
2021/01/24 09:50:45;;;;;;;1.28;1.00;;;;;;;17.63;46.78;98755.72;;;;-49
2021/01/24 09:53:45;;;;;;;1.66;1.21;;;;;;;17.68;46.69;98762.62;;;;-52
2021/01/24 09:56:45;;;;;;;1.20;1.10;;;;;;;17.74;46.64;98761.95;;;;-53
2021/01/24 09:59:45;;;;;;;1.36;1.17;;;;;;;17.80;46.80;98757.43;;;;-64
2021/01/24 10:02:44;;;;;;;3.14;1.12;;;;;;;17.85;46.65;98758.45;;;;-58
2021/01/24 10:05:45;;;;;;;3.37;1.20;;;;;;;17.91;46.80;98762.08;;;;-57
2021/01/24 10:08:45;;;;;;;1.14;1.06;;;;;;;17.96;46.88;98764.36;;;;-56
2021/01/24 10:11:45;;;;;;;2.69;1.11;;;;;;;18.02;46.69;98775.61;;;;-63
2021/01/24 10:14:45;;;;;;;1.42;1.19;;;;;;;18.08;46.77;98771.23;;;;-57
2021/01/24 10:17:44;;;;;;;1.99;1.01;;;;;;;18.12;46.82;98773.86;;;;-51
2021/01/24 10:20:45;;;;;;;1.23;1.10;;;;;;;18.17;46.81;98784.05;;;;-50
2021/01/24 10:23:45;;;;;;;1.15;1.09;;;;;;;18.21;46.69;98784.48;;;;-55
2021/01/24 10:26:44;;;;;;;1.20;1.11;;;;;;;18.25;46.78;98780.45;;;;-54
2021/01/24 10:29:45;;;;;;;1.30;1.20;;;;;;;18.30;46.61;98792.77;;;;-48
2021/01/24 10:32:45;;;;;;;1.10;1.10;;;;;;;18.35;46.72;98795.55;;;;-46
2021/01/24 10:35:45;;;;;;;1.28;1.18;;;;;;;18.37;46.72;98802.48;;;;-50
2021/01/24 10:38:46;;;;;;;2.35;1.18;;;;;;;18.42;46.36;98804.99;;;;-54
2021/01/24 10:41:44;;;;;;;1.25;1.10;;;;;;;18.43;46.14;98811.87;;;;-53
2021/01/24 10:44:45;;;;;;;1.27;1.17;;;;;;;18.44;46.07;98810.06;;;;-57
2021/01/24 10:47:45;;;;;;;1.26;1.12;;;;;;;18.47;45.89;98802.75;;;;-56
2021/01/24 10:50:45;;;;;;;2.29;1.24;;;;;;;18.46;45.78;98807.36;;;;-57
2021/01/24 10:53:45;;;;;;;2.80;1.10;;;;;;;18.46;45.77;98803.47;;;;-57
2021/01/24 10:56:44;;;;;;;1.34;1.21;;;;;;;18.47;45.76;98812.31;;;;-55
2021/01/24 10:59:45;;;;;;;1.27;1.07;;;;;;;18.47;45.74;98816.77;;;;-57
2021/01/24 11:02:45;;;;;;;1.20;1.10;;;;;;;18.49;45.68;98807.91;;;;-57
2021/01/24 11:05:44;;;;;;;1.17;1.07;;;;;;;18.50;45.62;98811.84;;;;-57
2021/01/24 11:08:45;;;;;;;1.01;1.01;;;;;;;18.52;45.57;98814.25;;;;-57
2021/01/24 11:11:45;;;;;;;1.43;1.10;;;;;;;18.53;45.53;98821.22;;;;-57
2021/01/24 11:14:45;;;;;;;1.88;1.14;;;;;;;18.53;45.50;98824.06;;;;-53
2021/01/24 11:17:45;;;;;;;1.64;1.20;;;;;;;18.55;45.50;98826.52;;;;-52
2021/01/24 11:20:45;;;;;;;1.15;1.09;;;;;;;18.56;45.44;98834.13;;;;-56
2021/01/24 11:23:45;;;;;;;1.14;1.10;;;;;;;18.56;45.43;98829.75;;;;-57
2021/01/24 11:26:45;;;;;;;1.11;1.10;;;;;;;18.58;45.41;98834.52;;;;-52
2021/01/24 11:29:44;;;;;;;1.70;1.24;;;;;;;18.58;45.38;98834.92;;;;-52
2021/01/24 11:32:45;;;;;;;1.30;1.20;;;;;;;18.60;45.36;98839.69;;;;-52
2021/01/24 11:35:45;;;;;;;1.30;1.20;;;;;;;18.61;45.31;98845.33;;;;-52
2021/01/24 11:38:44;;;;;;;1.61;1.09;;;;;;;18.62;45.35;98847.77;;;;-52
2021/01/24 11:41:45;;;;;;;1.30;1.20;;;;;;;18.63;45.30;98852.77;;;;-54
2021/01/24 11:44:44;;;;;;;1.13;1.08;;;;;;;18.64;45.26;98850.41;;;;-52
2021/01/24 11:47:45;;;;;;;1.35;1.25;;;;;;;18.65;45.28;98854.75;;;;-53
2021/01/24 11:50:45;;;;;;;1.28;1.18;;;;;;;18.67;45.29;98865.12;;;;-52
2021/01/24 11:53:44;;;;;;;1.30;1.20;;;;;;;18.67;45.26;98860.95;;;;-53
2021/01/24 11:56:45;;;;;;;1.27;1.19;;;;;;;18.69;45.25;98868.97;;;;-52
2021/01/24 11:59:45;;;;;;;1.29;1.19;;;;;;;18.71;45.17;98866.35;;;;-52
2021/01/24 12:02:45;;;;;;;1.37;1.21;;;;;;;18.71;45.16;98868.23;;;;-53
2021/01/24 12:05:45;;;;;;;1.30;1.20;;;;;;;18.71;45.16;98874.38;;;;-53
2021/01/24 12:08:44;;;;;;;1.23;1.13;;;;;;;18.73;45.08;98877.02;;;;-52
2021/01/24 12:11:45;;;;;;;1.30;1.20;;;;;;;18.73;45.11;98872.31;;;;-53
2021/01/24 12:14:45;;;;;;;1.83;1.20;;;;;;;18.75;45.06;98874.55;;;;-52
2021/01/24 12:17:44;;;;;;;1.10;1.10;;;;;;;18.76;45.05;98877.00;;;;-52
2021/01/24 12:20:45;;;;;;;1.10;1.10;;;;;;;18.75;45.06;98875.36;;;;-52
2021/01/24 12:23:44;;;;;;;1.20;1.10;;;;;;;18.76;45.06;98881.20;;;;-54
2021/01/24 12:26:45;;;;;;;2.33;1.19;;;;;;;18.78;45.02;98883.84;;;;-54
2021/01/24 12:29:45;;;;;;;1.10;1.10;;;;;;;18.78;44.95;98891.64;;;;-54
2021/01/24 12:32:45;;;;;;;1.14;1.10;;;;;;;18.78;45.05;98883.37;;;;-54
2021/01/24 12:35:45;;;;;;;1.16;1.13;;;;;;;18.80;44.87;98884.33;;;;-53
2021/01/24 12:38:45;;;;;;;1.89;1.14;;;;;;;18.79;44.86;98891.80;;;;-54
2021/01/24 12:41:44;;;;;;;1.29;1.20;;;;;;;18.79;44.82;98892.47;;;;-53
2021/01/24 12:44:45;;;;;;;1.33;1.20;;;;;;;18.79;44.80;98897.09;;;;-54
2021/01/24 12:47:45;;;;;;;1.33;1.23;;;;;;;18.79;44.81;98895.14;;;;-53
2021/01/24 12:50:44;;;;;;;1.27;1.17;;;;;;;18.79;44.84;98887.19;;;;-55
2021/01/24 12:53:45;;;;;;;1.14;1.10;;;;;;;18.80;44.75;98897.97;;;;-55
2021/01/24 12:56:44;;;;;;;1.33;1.20;;;;;;;18.80;44.77;98894.71;;;;-53
2021/01/24 12:59:44;;;;;;;1.27;1.19;;;;;;;18.80;44.71;98899.20;;;;-55
2021/01/24 13:02:45;;;;;;;1.25;1.15;;;;;;;18.80;44.73;98894.98;;;;-56
2021/01/24 13:05:44;;;;;;;2.05;1.14;;;;;;;18.80;44.75;98899.76;;;;-54
2021/01/24 13:08:45;;;;;;;1.20;1.10;;;;;;;18.80;44.75;98899.92;;;;-54
2021/01/24 13:11:45;;;;;;;1.20;1.10;;;;;;;18.80;44.72;98898.22;;;;-56
2021/01/24 13:14:44;;;;;;;1.30;1.20;;;;;;;18.80;44.75;98907.55;;;;-54
2021/01/24 13:17:45;;;;;;;1.17;1.10;;;;;;;18.80;44.77;98909.01;;;;-54
2021/01/24 13:20:44;;;;;;;1.19;1.10;;;;;;;18.81;44.71;98915.95;;;;-55
2021/01/24 13:23:44;;;;;;;1.20;1.11;;;;;;;18.82;44.67;98917.33;;;;-54
2021/01/24 13:26:45;;;;;;;1.19;1.13;;;;;;;18.85;44.67;98917.45;;;;-62
2021/01/24 13:29:44;;;;;;;1.20;1.13;;;;;;;18.86;45.06;98924.41;;;;-59
2021/01/24 13:32:45;;;;;;;3.97;1.39;;;;;;;18.90;45.09;98920.70;;;;-55
2021/01/24 13:35:44;;;;;;;4.23;1.50;;;;;;;18.90;45.12;98918.98;;;;-58
2021/01/24 13:38:44;;;;;;;2.07;1.29;;;;;;;18.92;45.25;98924.13;;;;-54
2021/01/24 13:41:45;;;;;;;2.89;1.20;;;;;;;18.95;45.38;98927.20;;;;-59
2021/01/24 13:44:44;;;;;;;2.11;1.30;;;;;;;18.97;45.52;98936.73;;;;-58
2021/01/24 13:47:44;;;;;;;1.34;1.21;;;;;;;19.02;45.72;98942.83;;;;-55
2021/01/24 13:50:45;;;;;;;2.20;1.17;;;;;;;19.04;46.02;98943.94;;;;-56
2021/01/24 13:53:45;;;;;;;1.29;1.18;;;;;;;19.06;46.10;98949.41;;;;-52
2021/01/24 13:56:45;;;;;;;1.33;1.11;;;;;;;19.09;46.14;98954.14;;;;-51
2021/01/24 13:59:44;;;;;;;1.30;1.20;;;;;;;19.14;46.09;98954.41;;;;-52
2021/01/24 14:02:44;;;;;;;1.83;1.20;;;;;;;19.15;46.10;98959.17;;;;-60
2021/01/24 14:05:45;;;;;;;2.58;1.25;;;;;;;19.17;45.67;98960.11;;;;-63
2021/01/24 14:08:44;;;;;;;1.93;1.21;;;;;;;19.15;45.31;98962.58;;;;-63
2021/01/24 14:11:44;;;;;;;1.85;1.15;;;;;;;19.14;45.19;98963.09;;;;-63
2021/01/24 14:14:45;;;;;;;1.08;1.08;;;;;;;19.13;45.10;98967.48;;;;-63
2021/01/24 14:17:45;;;;;;;1.35;1.25;;;;;;;19.13;45.02;98968.70;;;;-64
2021/01/24 14:20:45;;;;;;;1.47;1.15;;;;;;;19.12;44.98;98965.64;;;;-63
2021/01/24 14:23:44;;;;;;;1.20;1.10;;;;;;;19.12;44.90;98972.20;;;;-63
2021/01/24 14:26:44;;;;;;;1.27;1.20;;;;;;;19.12;44.94;98976.91;;;;-63
2021/01/24 14:29:45;;;;;;;1.39;1.20;;;;;;;19.13;44.88;98986.25;;;;-63
2021/01/24 14:32:45;;;;;;;1.30;1.20;;;;;;;19.11;44.90;98993.25;;;;-63
2021/01/24 14:35:45;;;;;;;1.13;1.09;;;;;;;19.12;44.85;98990.81;;;;-63
2021/01/24 14:38:45;;;;;;;1.16;1.09;;;;;;;19.11;44.78;98987.33;;;;-63
2021/01/24 14:41:44;;;;;;;1.30;1.20;;;;;;;19.11;44.81;98994.05;;;;-63
2021/01/24 14:44:45;;;;;;;2.33;1.03;;;;;;;19.10;44.82;98990.03;;;;-63
2021/01/24 14:47:44;;;;;;;2.16;1.20;;;;;;;19.10;44.79;98996.77;;;;-63
2021/01/24 14:50:44;;;;;;;1.29;1.19;;;;;;;19.10;44.74;98997.25;;;;-62
2021/01/24 14:53:44;;;;;;;1.33;1.13;;;;;;;19.10;44.79;98994.41;;;;-63
2021/01/24 14:56:44;;;;;;;1.20;1.10;;;;;;;19.11;44.74;98995.05;;;;-63
2021/01/24 14:59:45;;;;;;;1.21;1.10;;;;;;;19.10;44.73;98992.86;;;;-63
2021/01/24 15:02:45;;;;;;;1.01;1.01;;;;;;;19.10;44.70;98995.14;;;;-63
2021/01/24 15:05:44;;;;;;;1.18;1.09;;;;;;;19.09;44.69;98994.36;;;;-63
2021/01/24 15:08:44;;;;;;;1.37;1.27;;;;;;;19.08;44.57;98996.38;;;;-51
2021/01/24 15:11:45;;;;;;;1.99;1.31;;;;;;;19.06;44.00;98991.72;;;;-60
2021/01/24 15:14:44;;;;;;;2.49;1.41;;;;;;;19.06;43.94;98993.48;;;;-60
2021/01/24 15:17:45;;;;;;;2.63;1.21;;;;;;;19.07;44.15;98990.88;;;;-60
2021/01/24 15:20:44;;;;;;;2.18;1.29;;;;;;;19.07;44.14;98990.66;;;;-58
2021/01/24 15:23:44;;;;;;;3.04;1.15;;;;;;;19.07;44.23;98991.77;;;;-58
2021/01/24 15:26:45;;;;;;;2.53;1.23;;;;;;;19.08;44.22;98995.09;;;;-58
2021/01/24 15:29:44;;;;;;;1.43;1.27;;;;;;;19.08;44.20;98998.99;;;;-58
2021/01/24 15:32:45;;;;;;;1.33;1.22;;;;;;;19.09;44.20;99000.09;;;;-58
2021/01/24 15:35:45;;;;;;;1.23;1.13;;;;;;;19.10;44.18;99001.65;;;;-58
2021/01/24 15:38:44;;;;;;;1.31;1.19;;;;;;;19.09;44.26;99003.02;;;;-58
2021/01/24 15:41:44;;;;;;;1.71;1.24;;;;;;;19.10;44.23;99002.87;;;;-59
2021/01/24 15:44:44;;;;;;;1.79;1.19;;;;;;;19.10;44.19;99000.42;;;;-59
2021/01/24 15:47:44;;;;;;;1.28;1.18;;;;;;;19.11;44.13;99002.84;;;;-58
2021/01/24 15:50:45;;;;;;;3.10;1.44;;;;;;;19.11;44.22;98996.27;;;;-50
2021/01/24 15:53:44;;;;;;;3.85;1.90;;;;;;;19.12;44.27;98999.92;;;;-51
2021/01/24 15:56:45;;;;;;;5.17;2.53;;;;;;;19.09;43.12;99001.98;;;;-60
2021/01/24 15:59:45;;;;;;;6.53;2.65;;;;;;;19.08;43.85;98998.58;;;;-60
2021/01/24 16:02:44;;;;;;;4.01;2.28;;;;;;;19.13;44.14;99000.95;;;;-56
2021/01/24 16:05:45;;;;;;;4.79;1.89;;;;;;;19.18;44.27;99005.42;;;;-49
2021/01/24 16:08:44;;;;;;;3.21;1.97;;;;;;;19.20;44.44;99012.95;;;;-59
2021/01/24 16:11:44;;;;;;;3.35;2.05;;;;;;;19.22;44.41;99016.40;;;;-59
2021/01/24 16:14:45;;;;;;;3.31;2.09;;;;;;;19.27;44.72;99015.99;;;;-52
2021/01/24 16:17:44;;;;;;;3.47;1.99;;;;;;;19.28;44.81;99019.06;;;;-56
2021/01/24 16:21:10;;;;;;;2.93;1.96;;;;;;;19.29;44.81;99018.05;;;;-45
2021/01/24 16:23:44;;;;;;;2.79;2.01;;;;;;;19.33;44.88;99015.57;;;;-47
2021/01/24 16:26:44;;;;;;;2.84;1.97;;;;;;;19.36;45.13;99016.26;;;;-55
2021/01/24 16:29:45;;;;;;;2.15;1.89;;;;;;;19.37;45.29;99013.22;;;;-52
2021/01/24 16:32:44;;;;;;;2.72;1.91;;;;;;;19.39;45.30;99012.38;;;;-50
2021/01/24 16:35:45;;;;;;;2.13;1.77;;;;;;;19.41;45.69;99005.87;;;;-48
2021/01/24 16:38:44;;;;;;;3.70;1.93;;;;;;;19.43;45.67;99003.14;;;;-49
2021/01/24 16:41:44;;;;;;;3.41;1.80;;;;;;;19.45;45.67;99000.27;;;;-54
2021/01/24 16:44:44;;;;;;;2.71;1.93;;;;;;;19.45;45.58;98999.52;;;;-51
2021/01/24 16:47:46;;;;;;;2.77;1.78;;;;;;;19.47;45.80;98999.11;;;;-51
2021/01/24 16:50:46;;;;;;;3.84;1.83;;;;;;;19.47;45.69;99000.71;;;;-55
2021/01/24 16:53:46;;;;;;;2.05;1.83;;;;;;;19.48;45.72;98993.61;;;;-54
2021/01/24 16:56:44;;;;;;;2.15;1.68;;;;;;;19.47;45.88;98986.48;;;;-48
2021/01/24 16:59:44;;;;;;;2.74;1.86;;;;;;;19.48;45.88;98983.70;;;;-53
2021/01/24 17:02:44;;;;;;;2.04;1.71;;;;;;;19.49;45.62;98986.05;;;;-55
2021/01/24 17:05:44;;;;;;;3.34;1.78;;;;;;;19.50;45.88;98988.47;;;;-50
2021/01/24 17:08:44;;;;;;;2.01;1.73;;;;;;;19.49;45.87;98986.72;;;;-51
2021/01/24 17:11:44;;;;;;;2.12;1.80;;;;;;;19.49;45.95;98986.86;;;;-46
2021/01/24 17:14:44;;;;;;;2.38;1.80;;;;;;;19.50;46.16;98983.02;;;;-48
2021/01/24 17:17:45;;;;;;;1.95;1.60;;;;;;;19.49;46.17;98978.16;;;;-47
2021/01/24 17:20:44;;;;;;;2.10;1.59;;;;;;;19.49;45.99;98981.25;;;;-49
2021/01/24 17:23:45;;;;;;;2.25;1.70;;;;;;;19.50;46.03;98982.79;;;;-47
2021/01/24 17:26:44;;;;;;;3.73;1.60;;;;;;;19.50;46.29;98978.56;;;;-57
2021/01/24 17:29:44;;;;;;;1.76;1.55;;;;;;;19.50;46.33;98972.95;;;;-50
2021/01/24 17:32:44;;;;;;;1.77;1.67;;;;;;;19.50;46.37;98965.89;;;;-51
2021/01/24 17:35:44;;;;;;;1.71;1.55;;;;;;;19.48;46.07;98964.86;;;;-55
2021/01/24 17:38:44;;;;;;;2.02;1.70;;;;;;;19.49;46.22;98963.88;;;;-55
2021/01/24 17:41:45;;;;;;;2.21;1.77;;;;;;;19.49;46.53;98959.41;;;;-52
2021/01/24 17:44:45;;;;;;;1.76;1.63;;;;;;;19.49;46.79;98956.72;;;;-50
2021/01/24 17:47:45;;;;;;;1.85;1.73;;;;;;;19.50;46.70;98970.60;;;;-56
2021/01/24 17:50:44;;;;;;;1.90;1.71;;;;;;;19.50;46.88;98974.81;;;;-52
2021/01/24 17:53:44;;;;;;;2.15;1.88;;;;;;;19.49;45.87;98969.89;;;;-54
2021/01/24 17:56:45;;;;;;;5.58;2.03;;;;;;;19.44;45.99;98973.22;;;;-59
2021/01/24 17:59:46;;;;;;;3.63;2.04;;;;;;;19.39;44.94;98976.95;;;;-60
2021/01/24 18:02:44;;;;;;;2.43;2.17;;;;;;;19.35;44.21;98972.08;;;;-55
2021/01/24 18:05:45;;;;;;;4.20;2.39;;;;;;;19.31;43.93;98964.19;;;;-54
2021/01/24 18:08:44;;;;;;;3.47;2.34;;;;;;;19.32;43.59;98960.83;;;;-52
2021/01/24 18:11:46;;;;;;;3.57;2.05;;;;;;;19.32;43.95;98965.63;;;;-52
2021/01/24 18:14:44;;;;;;;2.38;2.06;;;;;;;19.32;43.97;98974.58;;;;-49
2021/01/24 18:17:44;;;;;;;3.59;2.09;;;;;;;19.32;44.00;98965.88;;;;-49
2021/01/24 18:20:44;;;;;;;2.42;2.21;;;;;;;19.32;43.98;98950.20;;;;-49
2021/01/24 18:23:44;;;;;;;2.82;2.30;;;;;;;19.31;43.98;98963.28;;;;-49
2021/01/24 18:26:44;;;;;;;4.01;2.52;;;;;;;19.30;44.07;98974.69;;;;-49
2021/01/24 18:29:46;;;;;;;3.06;2.32;;;;;;;19.28;44.07;98959.69;;;;-50
2021/01/24 18:32:44;;;;;;;4.24;2.07;;;;;;;19.29;44.01;98952.11;;;;-51
2021/01/24 18:35:44;;;;;;;2.37;2.11;;;;;;;19.29;43.93;98954.13;;;;-51
2021/01/24 18:38:44;;;;;;;2.29;1.98;;;;;;;19.29;44.08;98952.69;;;;-51
2021/01/24 18:41:44;;;;;;;2.47;2.19;;;;;;;19.29;44.02;98948.72;;;;-54
2021/01/24 18:44:44;;;;;;;2.66;2.25;;;;;;;19.28;44.05;98946.87;;;;-56
2021/01/24 18:47:45;;;;;;;2.61;2.25;;;;;;;19.27;43.98;98945.73;;;;-54
2021/01/24 18:50:45;;;;;;;2.43;2.22;;;;;;;19.27;44.04;98950.28;;;;-52
2021/01/24 18:53:44;;;;;;;2.32;2.09;;;;;;;19.25;44.00;98952.41;;;;-51
2021/01/24 18:56:44;;;;;;;2.38;2.14;;;;;;;19.25;44.04;98950.55;;;;-49
2021/01/24 18:59:44;;;;;;;2.47;2.11;;;;;;;19.26;43.99;98950.39;;;;-54
2021/01/24 19:02:47;;;;;;;3.30;2.36;;;;;;;19.25;44.01;98961.52;;;;-51
2021/01/24 19:05:45;;;;;;;2.66;2.15;;;;;;;19.23;44.04;98963.98;;;;-51
2021/01/24 19:08:44;;;;;;;2.45;2.24;;;;;;;19.23;44.02;98968.61;;;;-52
2021/01/24 19:11:46;;;;;;;3.19;2.25;;;;;;;19.23;44.01;98973.83;;;;-52
2021/01/24 19:14:44;;;;;;;2.88;2.30;;;;;;;19.23;44.06;98976.98;;;;-52
2021/01/24 19:17:44;;;;;;;2.52;2.31;;;;;;;19.22;44.03;98971.10;;;;-52
2021/01/24 19:20:44;;;;;;;3.82;2.37;;;;;;;19.22;44.10;98964.27;;;;-51
2021/01/24 19:23:44;;;;;;;2.49;2.20;;;;;;;19.22;43.91;98965.00;;;;-52
2021/01/24 19:26:44;;;;;;;2.61;2.39;;;;;;;19.21;43.97;98973.27;;;;-49
2021/01/24 19:29:44;;;;;;;2.50;2.25;;;;;;;19.21;43.99;98968.23;;;;-51
2021/01/24 19:32:44;;;;;;;3.03;2.60;;;;;;;19.21;43.95;98961.59;;;;-52
2021/01/24 19:35:44;;;;;;;2.69;2.35;;;;;;;19.20;43.97;98977.03;;;;-52
2021/01/24 19:38:44;;;;;;;3.21;2.34;;;;;;;19.20;43.95;98980.06;;;;-52
2021/01/24 19:41:44;;;;;;;2.95;2.50;;;;;;;19.20;43.96;98966.66;;;;-56
2021/01/24 19:44:44;;;;;;;2.61;2.41;;;;;;;19.20;43.97;98968.03;;;;-56
2021/01/24 19:47:44;;;;;;;2.63;2.42;;;;;;;19.20;43.99;98970.16;;;;-56